createdAt,value
2017-12-02T00:00:15.390Z,34.50
2017-12-02T00:02:08.646Z,39.80
2017-12-02T00:03:08.553Z,39.00
2017-12-02T00:05:01.809Z,39.90
2017-12-02T00:06:01.726Z,38.40
2017-12-02T00:07:54.997Z,42.00
2017-12-02T00:08:54.900Z,36.80
2017-12-02T00:10:48.148Z,38.10
2017-12-02T00:11:48.073Z,39.00
2017-12-02T00:13:41.390Z,39.60
2017-12-02T00:14:41.299Z,39.90
2017-12-02T00:16:34.568Z,35.90
2017-12-02T00:17:34.473Z,35.00
2017-12-02T00:19:27.710Z,36.10
2017-12-02T00:20:27.638Z,33.70
2017-12-02T00:22:20.906Z,36.50
2017-12-02T00:23:20.812Z,36.60
2017-12-02T00:25:14.062Z,34.40
2017-12-02T00:26:13.986Z,32.40
2017-12-02T00:28:07.252Z,30.00
2017-12-02T00:29:07.162Z,30.90
2017-12-02T00:31:00.438Z,30.00
2017-12-02T00:32:00.336Z,28.40
2017-12-02T00:33:53.582Z,27.80
2017-12-02T00:34:53.508Z,27.30
2017-12-02T00:36:46.773Z,31.10
2017-12-02T00:37:46.681Z,30.20
2017-12-02T00:39:39.935Z,31.70
2017-12-02T00:40:39.858Z,29.60
2017-12-02T00:42:33.129Z,31.20
2017-12-02T00:43:33.043Z,29.00
2017-12-02T00:45:26.372Z,29.60
2017-12-02T00:46:26.299Z,27.50
2017-12-02T00:48:19.565Z,23.90
2017-12-02T00:49:19.472Z,25.90
2017-12-02T00:51:12.738Z,27.20
2017-12-02T00:52:12.647Z,29.10
2017-12-02T00:54:05.895Z,28.70
2017-12-02T00:55:05.821Z,29.00
2017-12-02T00:56:59.083Z,27.30
2017-12-02T00:57:58.992Z,28.70
2017-12-02T00:59:52.235Z,29.50
2017-12-02T01:00:52.161Z,28.50
2017-12-02T01:02:45.430Z,30.50
2017-12-02T01:03:45.335Z,30.50
2017-12-02T01:05:38.585Z,28.50
2017-12-02T01:06:38.508Z,28.60
2017-12-02T01:08:31.771Z,27.40
2017-12-02T01:09:31.676Z,30.10
2017-12-02T01:11:24.948Z,27.30
2017-12-02T01:12:24.855Z,25.60
2017-12-02T01:14:18.104Z,25.20
2017-12-02T01:15:18.029Z,25.40
2017-12-02T01:17:11.293Z,24.90
2017-12-02T01:18:11.204Z,25.20
2017-12-02T01:20:04.451Z,25.70
2017-12-02T01:21:04.379Z,26.60
2017-12-02T01:22:57.643Z,28.60
2017-12-02T01:23:57.550Z,25.30
2017-12-02T01:25:50.798Z,26.70
2017-12-02T01:26:50.724Z,26.90
2017-12-02T01:28:43.990Z,26.60
2017-12-02T01:29:43.896Z,25.90
2017-12-02T01:31:37.166Z,26.00
2017-12-02T01:32:37.070Z,25.10
2017-12-02T01:34:30.372Z,23.40
2017-12-02T01:35:30.298Z,24.20
2017-12-02T01:37:23.568Z,27.30
2017-12-02T01:38:23.472Z,28.10
2017-12-02T01:40:16.720Z,30.70
2017-12-02T01:41:16.646Z,27.10
2017-12-02T01:43:09.912Z,28.80
2017-12-02T01:44:09.820Z,27.80
2017-12-02T01:46:03.069Z,27.40
2017-12-02T01:47:02.995Z,25.00
2017-12-02T01:48:56.273Z,23.50
2017-12-02T01:49:56.169Z,23.60
2017-12-02T01:51:49.437Z,22.30
2017-12-02T01:52:49.344Z,22.10
2017-12-02T01:54:42.593Z,23.20
2017-12-02T01:55:42.518Z,24.60
2017-12-02T01:57:35.788Z,28.40
2017-12-02T01:58:35.695Z,31.20
2017-12-02T02:00:28.942Z,32.40
2017-12-02T02:01:28.867Z,36.00
2017-12-02T02:03:22.142Z,28.20
2017-12-02T02:04:22.043Z,29.20
2017-12-02T02:06:15.291Z,29.10
2017-12-02T02:07:15.217Z,29.10
2017-12-02T02:09:08.473Z,31.30
2017-12-02T02:10:08.384Z,32.00
2017-12-02T02:12:01.651Z,28.10
2017-12-02T02:13:01.557Z,29.80
2017-12-02T02:14:54.806Z,26.30
2017-12-02T02:15:54.730Z,26.20
2017-12-02T02:17:48.003Z,24.90
2017-12-02T02:18:47.908Z,25.40
2017-12-02T02:20:41.156Z,24.00
2017-12-02T02:21:41.083Z,23.30
2017-12-02T02:23:34.392Z,21.90
2017-12-02T02:24:34.301Z,21.00
2017-12-02T02:26:27.552Z,22.40
2017-12-02T02:27:27.476Z,22.80
2017-12-02T02:29:20.735Z,22.20
2017-12-02T02:30:20.641Z,23.10
2017-12-02T02:32:13.910Z,22.80
2017-12-02T02:33:13.818Z,21.70
2017-12-02T02:35:07.069Z,22.10
2017-12-02T02:36:06.992Z,21.30
2017-12-02T02:38:00.256Z,22.20
2017-12-02T02:39:00.166Z,23.90
2017-12-02T02:40:53.415Z,22.40
2017-12-02T02:41:53.341Z,22.10
2017-12-02T02:43:46.607Z,22.70
2017-12-02T02:44:46.515Z,22.00
2017-12-02T02:46:39.764Z,19.80
2017-12-02T02:47:39.690Z,20.80
2017-12-02T02:49:32.950Z,22.30
2017-12-02T02:50:32.855Z,24.00
2017-12-02T02:52:26.123Z,27.30
2017-12-02T02:53:26.028Z,25.20
2017-12-02T02:55:19.276Z,22.30
2017-12-02T02:56:19.201Z,20.90
2017-12-02T02:58:12.472Z,22.40
2017-12-02T02:59:12.375Z,22.40
2017-12-02T03:01:05.620Z,20.40
2017-12-02T03:02:05.548Z,21.00
2017-12-02T03:03:58.813Z,24.30
2017-12-02T03:04:58.720Z,25.30
2017-12-02T03:06:51.968Z,23.40
2017-12-02T03:07:51.895Z,23.50
2017-12-02T03:09:45.149Z,23.20
2017-12-02T03:10:45.058Z,23.90
2017-12-02T03:12:38.329Z,25.80
2017-12-02T03:13:38.232Z,25.30
2017-12-02T03:15:31.480Z,24.30
2017-12-02T03:16:31.406Z,24.10
2017-12-02T03:18:24.676Z,28.10
2017-12-02T03:19:24.580Z,26.50
2017-12-02T03:21:17.829Z,24.70
2017-12-02T03:22:17.756Z,24.50
2017-12-02T03:24:11.022Z,24.90
2017-12-02T03:25:10.930Z,26.20
2017-12-02T03:27:04.178Z,29.00
2017-12-02T03:28:04.104Z,27.20
2017-12-02T03:29:57.399Z,26.60
2017-12-02T03:30:57.306Z,25.10
2017-12-02T03:32:50.572Z,27.30
2017-12-02T03:33:50.480Z,27.40
2017-12-02T03:35:43.726Z,24.80
2017-12-02T03:36:43.653Z,24.20
2017-12-02T03:38:36.920Z,28.20
2017-12-02T03:39:36.828Z,25.80
2017-12-02T03:41:30.074Z,27.00
2017-12-02T03:42:30.055Z,23.90
2017-12-02T03:44:23.267Z,24.50
2017-12-02T03:45:23.175Z,24.50
2017-12-02T03:47:16.423Z,23.20
2017-12-02T03:48:16.351Z,25.50
2017-12-02T03:50:09.617Z,23.30
2017-12-02T03:51:09.524Z,24.40
2017-12-02T03:53:02.790Z,27.90
2017-12-02T03:54:02.696Z,25.80
2017-12-02T03:55:55.944Z,25.20
2017-12-02T03:56:55.871Z,26.50
2017-12-02T03:58:49.135Z,24.10
2017-12-02T03:59:49.043Z,26.00
2017-12-02T04:01:42.378Z,28.80
2017-12-02T04:02:42.303Z,26.10
2017-12-02T04:04:35.571Z,24.60
2017-12-02T04:05:35.479Z,25.60
2017-12-02T04:07:28.726Z,24.40
2017-12-02T04:08:28.652Z,24.90
2017-12-02T04:10:21.918Z,24.20
2017-12-02T04:11:21.826Z,24.10
2017-12-02T04:13:15.093Z,25.40
2017-12-02T04:14:15.000Z,24.90
2017-12-02T04:16:08.251Z,26.90
2017-12-02T04:17:08.178Z,24.80
2017-12-02T04:19:01.447Z,26.20
2017-12-02T04:20:01.351Z,25.70
2017-12-02T04:21:54.598Z,23.70
2017-12-02T04:22:54.525Z,25.30
2017-12-02T04:24:47.793Z,23.70
2017-12-02T04:25:47.700Z,23.50
2017-12-02T04:27:40.969Z,23.90
2017-12-02T04:28:40.863Z,23.80
2017-12-02T04:30:34.101Z,24.30
2017-12-02T04:31:34.026Z,24.30
2017-12-02T04:33:27.284Z,22.70
2017-12-02T04:34:27.190Z,22.60
2017-12-02T04:36:20.438Z,21.50
2017-12-02T04:37:20.363Z,21.80
2017-12-02T04:39:13.625Z,23.90
2017-12-02T04:40:13.529Z,25.00
2017-12-02T04:42:06.777Z,22.80
2017-12-02T04:43:06.703Z,22.10
2017-12-02T04:44:59.968Z,22.60
2017-12-02T04:45:59.876Z,21.90
2017-12-02T04:47:53.143Z,22.90
2017-12-02T04:48:53.052Z,24.60
2017-12-02T04:50:46.297Z,23.30
2017-12-02T04:51:46.224Z,25.10
2017-12-02T04:53:39.490Z,24.00
2017-12-02T04:54:39.399Z,23.40
2017-12-02T04:56:32.635Z,22.00
2017-12-02T04:57:32.561Z,22.70
2017-12-02T04:59:25.818Z,23.30
2017-12-02T05:00:25.723Z,24.00
2017-12-02T05:02:18.973Z,23.20
2017-12-02T05:03:18.896Z,24.70
2017-12-02T05:05:12.163Z,19.50
2017-12-02T05:06:12.068Z,19.20
2017-12-02T05:08:05.389Z,19.40
2017-12-02T05:09:05.298Z,19.70
2017-12-02T05:10:58.546Z,21.50
2017-12-02T05:11:58.472Z,21.10
2017-12-02T05:13:51.727Z,20.50
2017-12-02T05:14:51.633Z,21.00
2017-12-02T05:16:44.883Z,21.20
2017-12-02T05:17:44.809Z,22.20
2017-12-02T05:19:38.072Z,21.90
2017-12-02T05:20:37.981Z,21.70
2017-12-02T05:22:31.293Z,23.20
2017-12-02T05:23:31.218Z,23.10
2017-12-02T05:25:24.487Z,19.70
2017-12-02T05:26:24.394Z,21.30
2017-12-02T05:28:17.659Z,20.40
2017-12-02T05:29:17.566Z,21.40
2017-12-02T05:31:10.813Z,21.10
2017-12-02T05:32:10.738Z,22.00
2017-12-02T05:34:04.004Z,21.30
2017-12-02T05:35:03.909Z,21.00
2017-12-02T05:36:57.159Z,22.10
2017-12-02T05:37:57.084Z,20.80
2017-12-02T05:39:50.396Z,21.30
2017-12-02T05:40:50.300Z,21.40
2017-12-02T05:42:43.552Z,23.20
2017-12-02T05:43:43.478Z,22.60
2017-12-02T05:45:36.736Z,22.70
2017-12-02T05:46:36.638Z,23.30
2017-12-02T05:48:29.905Z,22.10
2017-12-02T05:49:29.812Z,23.50
2017-12-02T05:51:23.062Z,22.10
2017-12-02T05:52:22.987Z,23.50
2017-12-02T05:54:16.255Z,23.10
2017-12-02T05:55:16.160Z,24.00
2017-12-02T05:57:09.408Z,24.70
2017-12-02T05:58:09.332Z,24.70
2017-12-02T06:00:02.601Z,23.80
2017-12-02T06:01:02.514Z,22.90
2017-12-02T06:02:55.747Z,21.30
2017-12-02T06:03:55.670Z,21.80
2017-12-02T06:05:48.926Z,22.40
2017-12-02T06:06:48.831Z,23.40
2017-12-02T06:08:42.087Z,24.20
2017-12-02T06:09:41.993Z,23.70
2017-12-02T06:11:35.244Z,24.60
2017-12-02T06:12:35.165Z,25.00
2017-12-02T06:14:28.429Z,24.40
2017-12-02T06:15:28.338Z,24.80
2017-12-02T06:17:21.576Z,26.00
2017-12-02T06:18:21.501Z,26.80
2017-12-02T06:20:14.767Z,24.90
2017-12-02T06:21:14.673Z,25.80
2017-12-02T06:23:07.954Z,23.00
2017-12-02T06:24:07.837Z,23.20
2017-12-02T06:26:01.101Z,24.00
2017-12-02T06:27:01.008Z,24.60
2017-12-02T06:28:54.277Z,24.90
2017-12-02T06:29:54.182Z,23.70
2017-12-02T06:31:47.429Z,22.60
2017-12-02T06:32:47.355Z,22.60
2017-12-02T06:34:40.615Z,23.80
2017-12-02T06:35:40.523Z,24.70
2017-12-02T06:37:33.764Z,25.20
2017-12-02T06:38:33.687Z,23.50
2017-12-02T06:40:26.954Z,24.50
2017-12-02T06:41:26.860Z,25.80
2017-12-02T06:43:20.095Z,22.90
2017-12-02T06:44:20.022Z,22.40
2017-12-02T06:46:13.292Z,20.60
2017-12-02T06:47:13.198Z,22.20
2017-12-02T06:49:06.456Z,23.20
2017-12-02T06:50:06.363Z,23.70
2017-12-02T06:51:59.611Z,23.20
2017-12-02T06:52:59.536Z,22.20
2017-12-02T06:54:52.805Z,23.60
2017-12-02T06:55:52.713Z,23.50
2017-12-02T06:57:45.961Z,23.80
2017-12-02T06:58:45.887Z,23.30
2017-12-02T07:00:39.153Z,23.50
2017-12-02T07:01:39.060Z,23.00
2017-12-02T07:03:32.374Z,22.70
2017-12-02T07:04:32.304Z,22.80
2017-12-02T07:06:25.567Z,22.60
2017-12-02T07:07:25.475Z,23.20
2017-12-02T07:09:18.735Z,21.80
2017-12-02T07:10:18.642Z,22.30
2017-12-02T07:12:11.889Z,21.80
2017-12-02T07:13:11.816Z,20.90
2017-12-02T07:15:05.073Z,20.40
2017-12-02T07:16:04.979Z,20.80
2017-12-02T07:17:58.232Z,20.40
2017-12-02T07:18:58.149Z,20.30
2017-12-02T07:20:51.410Z,22.90
2017-12-02T07:21:51.312Z,22.40
2017-12-02T07:23:44.562Z,19.80
2017-12-02T07:24:44.489Z,18.70
2017-12-02T07:26:37.755Z,20.90
2017-12-02T07:27:37.661Z,20.90
2017-12-02T07:29:30.919Z,20.30
2017-12-02T07:30:30.825Z,19.50
2017-12-02T07:32:24.074Z,20.90
2017-12-02T07:33:23.999Z,20.00
2017-12-02T07:35:17.267Z,19.10
2017-12-02T07:36:17.175Z,19.20
2017-12-02T07:38:11.272Z,19.60
2017-12-02T07:39:11.197Z,18.80
2017-12-02T07:41:04.468Z,18.20
2017-12-02T07:42:04.370Z,19.00
2017-12-02T07:43:57.618Z,20.60
2017-12-02T07:44:57.547Z,21.20
2017-12-02T07:46:50.819Z,22.20
2017-12-02T07:47:50.720Z,21.30
2017-12-02T07:49:43.976Z,20.90
2017-12-02T07:50:43.883Z,20.90
2017-12-02T07:52:37.129Z,20.00
2017-12-02T07:53:37.055Z,22.00
2017-12-02T07:55:30.398Z,19.40
2017-12-02T07:56:30.302Z,19.00
2017-12-02T07:58:23.549Z,21.50
2017-12-02T07:59:23.472Z,20.50
2017-12-02T08:01:16.745Z,23.60
2017-12-02T08:02:16.651Z,22.90
2017-12-02T08:04:09.899Z,23.60
2017-12-02T08:05:09.826Z,23.70
2017-12-02T08:07:03.093Z,23.40
2017-12-02T08:08:02.997Z,22.20
2017-12-02T08:09:56.257Z,21.90
2017-12-02T08:10:56.163Z,21.60
2017-12-02T08:12:49.425Z,23.10
2017-12-02T08:13:49.337Z,23.60
2017-12-02T08:15:42.602Z,20.80
2017-12-02T08:16:42.511Z,20.30
2017-12-02T08:18:35.759Z,20.50
2017-12-02T08:19:35.683Z,20.80
2017-12-02T08:21:28.940Z,18.80
2017-12-02T08:22:28.852Z,17.40
2017-12-02T08:24:22.095Z,18.00
2017-12-02T08:25:22.020Z,18.80
2017-12-02T08:27:15.286Z,18.30
2017-12-02T08:28:15.237Z,17.80
2017-12-02T08:30:08.461Z,18.40
2017-12-02T08:31:08.368Z,18.50
2017-12-02T08:33:01.617Z,16.40
2017-12-02T08:34:01.542Z,16.10
2017-12-02T08:35:54.809Z,17.70
2017-12-02T08:36:54.716Z,15.90
2017-12-02T08:38:47.965Z,15.00
2017-12-02T08:39:47.890Z,14.70
2017-12-02T08:41:41.157Z,15.10
2017-12-02T08:42:41.065Z,16.20
2017-12-02T08:44:34.400Z,16.10
2017-12-02T08:45:34.305Z,16.60
2017-12-02T08:47:27.550Z,17.30
2017-12-02T08:48:27.477Z,17.60
2017-12-02T08:50:20.744Z,16.40
2017-12-02T08:51:20.651Z,16.20
2017-12-02T08:53:13.901Z,15.80
2017-12-02T08:54:13.825Z,15.10
2017-12-02T08:56:07.093Z,16.20
2017-12-02T08:57:06.998Z,16.10
2017-12-02T08:59:00.239Z,16.70
2017-12-02T09:00:00.166Z,16.10
2017-12-02T09:01:53.435Z,15.20
2017-12-02T09:02:53.341Z,16.20
2017-12-02T09:04:46.609Z,16.40
2017-12-02T09:05:46.517Z,14.70
2017-12-02T09:07:39.766Z,14.30
2017-12-02T09:08:39.692Z,15.30
2017-12-02T09:10:32.963Z,15.00
2017-12-02T09:11:32.869Z,15.80
2017-12-02T09:13:26.117Z,16.50
2017-12-02T09:14:26.044Z,16.50
2017-12-02T09:16:19.311Z,16.00
2017-12-02T09:17:19.222Z,14.90
2017-12-02T09:19:12.459Z,15.30
2017-12-02T09:20:12.384Z,15.60
2017-12-02T09:22:05.652Z,14.50
2017-12-02T09:23:05.559Z,13.80
2017-12-02T09:24:58.828Z,14.70
2017-12-02T09:25:58.734Z,14.60
2017-12-02T09:27:51.982Z,15.30
2017-12-02T09:28:51.907Z,14.50
2017-12-02T09:30:45.174Z,15.00
2017-12-02T09:31:45.108Z,15.00
2017-12-02T09:33:38.414Z,15.00
2017-12-02T09:34:38.297Z,15.50
2017-12-02T09:36:31.564Z,15.70
2017-12-02T09:37:31.471Z,15.10
2017-12-02T09:39:24.711Z,15.50
2017-12-02T09:40:24.643Z,15.20
2017-12-02T09:42:17.906Z,13.40
2017-12-02T09:43:17.811Z,13.60
2017-12-02T09:45:11.079Z,13.60
2017-12-02T09:46:10.986Z,13.50
2017-12-02T09:48:04.236Z,12.90
2017-12-02T09:49:04.159Z,13.10
2017-12-02T09:50:57.492Z,15.20
2017-12-02T09:51:57.334Z,15.00
2017-12-02T09:53:50.571Z,13.90
2017-12-02T09:54:50.495Z,14.00
2017-12-02T09:56:43.754Z,13.60
2017-12-02T09:57:43.658Z,13.70
2017-12-02T09:59:36.899Z,14.80
2017-12-02T10:00:36.826Z,14.90
2017-12-02T10:02:30.090Z,15.90
2017-12-02T10:03:29.998Z,15.80
2017-12-02T10:05:23.261Z,15.20
2017-12-02T10:06:23.255Z,15.80
2017-12-02T10:08:16.449Z,15.30
2017-12-02T10:09:16.394Z,14.30
2017-12-02T10:11:10.123Z,14.90
2017-12-02T10:12:09.541Z,15.10
2017-12-02T10:14:02.773Z,13.80
2017-12-02T10:15:02.692Z,15.60
2017-12-02T10:16:55.957Z,16.20
2017-12-02T10:17:55.893Z,15.60
2017-12-02T10:19:49.129Z,15.60
2017-12-02T10:20:49.034Z,16.30
2017-12-02T10:22:42.396Z,14.70
2017-12-02T10:23:42.298Z,15.10
2017-12-02T10:25:35.564Z,14.40
2017-12-02T10:26:35.476Z,14.00
2017-12-02T10:28:28.756Z,14.50
2017-12-02T10:29:28.684Z,14.40
2017-12-02T10:31:21.952Z,14.40
2017-12-02T10:32:21.858Z,15.00
2017-12-02T10:34:15.107Z,14.20
2017-12-02T10:35:15.034Z,13.40
2017-12-02T10:37:08.391Z,12.50
2017-12-02T10:38:08.299Z,12.80
2017-12-02T10:40:01.591Z,12.00
2017-12-02T10:41:01.461Z,12.70
2017-12-02T10:42:54.719Z,11.70
2017-12-02T10:43:54.622Z,12.00
2017-12-02T10:45:47.883Z,12.00
2017-12-02T10:46:47.788Z,12.10
2017-12-02T10:48:41.029Z,12.80
2017-12-02T10:49:40.993Z,12.50
2017-12-02T10:51:34.212Z,12.40
2017-12-02T10:52:34.115Z,12.00
2017-12-02T10:54:27.369Z,13.80
2017-12-02T10:55:27.281Z,13.90
2017-12-02T10:57:20.537Z,13.60
2017-12-02T10:58:20.442Z,12.60
2017-12-02T11:00:13.686Z,12.10
2017-12-02T11:01:13.611Z,11.90
2017-12-02T11:03:06.867Z,11.70
2017-12-02T11:04:06.772Z,11.90
2017-12-02T11:06:00.034Z,12.10
2017-12-02T11:06:59.939Z,13.00
2017-12-02T11:08:53.173Z,11.80
2017-12-02T11:09:53.099Z,12.70
2017-12-02T11:11:46.357Z,13.20
2017-12-02T11:12:46.264Z,13.60
2017-12-02T11:14:39.498Z,14.30
2017-12-02T11:15:39.435Z,14.40
2017-12-02T11:17:32.679Z,14.10
2017-12-02T11:18:32.585Z,13.80
2017-12-02T11:20:25.826Z,13.80
2017-12-02T11:21:25.750Z,14.10
2017-12-02T11:23:19.005Z,14.00
2017-12-02T11:24:18.916Z,15.90
2017-12-02T11:26:12.178Z,15.70
2017-12-02T11:27:12.076Z,15.60
2017-12-02T11:29:05.315Z,15.20
2017-12-02T11:30:05.249Z,15.40
2017-12-02T11:31:58.512Z,15.50
2017-12-02T11:32:58.406Z,14.40
2017-12-02T11:34:51.643Z,15.10
2017-12-02T11:35:51.567Z,14.70
2017-12-02T11:37:44.834Z,15.60
2017-12-02T11:38:44.741Z,15.60
2017-12-02T11:40:37.980Z,15.40
2017-12-02T11:41:37.904Z,15.10
2017-12-02T11:43:31.163Z,13.50
2017-12-02T11:44:31.068Z,13.60
2017-12-02T11:46:24.389Z,13.10
2017-12-02T11:47:24.297Z,13.00
2017-12-02T11:49:17.537Z,13.80
2017-12-02T11:50:17.463Z,14.00
2017-12-02T11:52:10.719Z,14.10
2017-12-02T11:53:10.626Z,13.50
2017-12-02T11:55:03.862Z,12.70
2017-12-02T11:56:03.789Z,12.70
2017-12-02T11:57:57.065Z,13.60
2017-12-02T11:58:56.972Z,13.30
2017-12-02T12:00:50.208Z,14.00
2017-12-02T12:01:50.134Z,14.20
2017-12-02T12:03:43.390Z,14.60
2017-12-02T12:04:43.296Z,14.90
2017-12-02T12:06:36.554Z,14.90
2017-12-02T12:07:36.460Z,15.30
2017-12-02T12:09:29.705Z,16.40
2017-12-02T12:10:29.631Z,16.40
2017-12-02T12:12:22.882Z,15.90
2017-12-02T12:13:22.787Z,15.00
2017-12-02T12:15:16.025Z,14.60
2017-12-02T12:16:15.950Z,14.90
2017-12-02T12:18:09.206Z,14.30
2017-12-02T12:19:09.113Z,14.30
2017-12-02T12:21:02.367Z,14.60
2017-12-02T12:22:02.296Z,14.20
2017-12-02T12:23:55.551Z,14.10
2017-12-02T12:24:55.458Z,14.70
2017-12-02T12:26:48.713Z,14.90
2017-12-02T12:27:48.620Z,14.20
2017-12-02T12:29:41.860Z,14.20
2017-12-02T12:30:41.785Z,13.80
2017-12-02T12:32:35.037Z,14.50
2017-12-02T12:33:34.948Z,15.00
2017-12-02T12:35:28.188Z,15.70
2017-12-02T12:36:28.109Z,14.90
2017-12-02T12:38:21.370Z,14.80
2017-12-02T12:39:21.274Z,15.80
2017-12-02T12:41:14.512Z,15.60
2017-12-02T12:42:14.437Z,15.30
2017-12-02T12:44:07.692Z,14.50
2017-12-02T12:45:07.599Z,14.90
2017-12-02T12:47:00.885Z,15.30
2017-12-02T12:48:00.796Z,15.60
2017-12-02T12:49:54.030Z,14.80
2017-12-02T12:50:53.956Z,15.50
2017-12-02T12:52:47.214Z,13.40
2017-12-02T12:53:47.120Z,14.30
2017-12-02T12:55:40.372Z,12.80
2017-12-02T12:56:40.297Z,13.50
2017-12-02T12:58:33.553Z,14.50
2017-12-02T12:59:33.467Z,15.00
2017-12-02T13:01:26.698Z,13.80
2017-12-02T13:02:26.622Z,14.50
2017-12-02T13:04:19.882Z,15.60
2017-12-02T13:05:19.785Z,14.80
2017-12-02T13:07:13.046Z,14.00
2017-12-02T13:08:12.954Z,13.70
2017-12-02T13:10:06.192Z,13.60
2017-12-02T13:11:06.115Z,14.10
2017-12-02T13:12:59.377Z,13.90
2017-12-02T13:13:59.282Z,14.80
2017-12-02T13:15:52.523Z,14.40
2017-12-02T13:16:52.442Z,14.50
2017-12-02T13:18:45.703Z,13.50
2017-12-02T13:19:45.613Z,13.70
2017-12-02T13:21:38.869Z,14.60
2017-12-02T13:22:38.770Z,13.70
2017-12-02T13:24:32.031Z,13.30
2017-12-02T13:25:31.934Z,14.30
2017-12-02T13:27:25.196Z,14.50
2017-12-02T13:28:25.096Z,15.10
2017-12-02T13:30:18.372Z,14.60
2017-12-02T13:31:18.296Z,14.00
2017-12-02T13:33:11.556Z,14.70
2017-12-02T13:34:11.464Z,14.00
2017-12-02T13:36:04.706Z,14.80
2017-12-02T13:37:04.627Z,14.40
2017-12-02T13:38:57.884Z,13.50
2017-12-02T13:39:57.792Z,13.30
2017-12-02T13:41:51.050Z,14.90
2017-12-02T13:42:50.955Z,14.30
2017-12-02T13:44:44.196Z,13.60
2017-12-02T13:45:44.118Z,14.40
2017-12-02T13:47:37.374Z,13.90
2017-12-02T13:48:37.281Z,14.00
2017-12-02T13:50:30.521Z,12.80
2017-12-02T13:51:30.445Z,12.80
2017-12-02T13:53:23.700Z,13.90
2017-12-02T13:54:23.607Z,14.90
2017-12-02T13:56:16.865Z,15.70
2017-12-02T13:57:16.790Z,15.40
2017-12-02T13:59:10.046Z,14.50
2017-12-02T14:00:09.954Z,14.70
2017-12-02T14:02:03.268Z,14.10
2017-12-02T14:03:03.116Z,14.80
2017-12-02T14:04:56.494Z,14.20
2017-12-02T14:05:56.421Z,14.40
2017-12-02T14:07:49.677Z,15.50
2017-12-02T14:08:49.581Z,15.20
2017-12-02T14:10:42.820Z,15.00
2017-12-02T14:11:42.745Z,15.20
2017-12-02T14:13:36.002Z,14.30
2017-12-02T14:14:35.907Z,14.30
2017-12-02T14:16:29.146Z,14.20
2017-12-02T14:17:29.069Z,14.80
2017-12-02T14:19:22.520Z,15.30
2017-12-02T14:20:22.421Z,15.30
2017-12-02T14:22:15.679Z,15.80
2017-12-02T14:23:15.583Z,14.60
2017-12-02T14:25:08.821Z,15.90
2017-12-02T14:26:08.747Z,15.60
2017-12-02T14:28:02.001Z,15.40
2017-12-02T14:29:01.904Z,15.60
2017-12-02T14:30:55.148Z,14.80
2017-12-02T14:31:55.076Z,14.60
2017-12-02T14:33:48.511Z,14.40
2017-12-02T14:34:48.419Z,14.90
2017-12-02T14:36:41.656Z,14.40
2017-12-02T14:37:41.581Z,14.60
2017-12-02T14:39:34.843Z,15.30
2017-12-02T14:40:34.754Z,14.90
2017-12-02T14:42:28.010Z,14.50
2017-12-02T14:43:27.917Z,14.50
2017-12-02T14:45:21.165Z,14.30
2017-12-02T14:46:21.089Z,14.20
2017-12-02T14:48:14.529Z,13.30
2017-12-02T14:49:14.414Z,14.80
2017-12-02T14:51:07.659Z,14.30
2017-12-02T14:52:07.585Z,14.90
2017-12-02T14:54:00.862Z,14.50
2017-12-02T14:55:00.768Z,14.50
2017-12-02T14:56:54.020Z,13.80
2017-12-02T14:57:53.946Z,14.30
2017-12-02T14:59:47.205Z,14.70
2017-12-02T15:00:47.111Z,14.10
2017-12-02T15:02:40.376Z,14.40
2017-12-02T15:03:40.284Z,16.00
2017-12-02T15:05:33.532Z,15.30
2017-12-02T15:06:33.457Z,15.10
2017-12-02T15:08:26.726Z,16.60
2017-12-02T15:09:26.631Z,17.70
2017-12-02T15:11:19.878Z,18.60
2017-12-02T15:12:19.851Z,18.20
2017-12-02T15:14:13.069Z,16.30
2017-12-02T15:15:12.976Z,17.20
2017-12-02T15:17:06.224Z,17.60
2017-12-02T15:18:06.149Z,17.50
2017-12-02T15:19:59.514Z,17.50
2017-12-02T15:20:59.424Z,17.10
2017-12-02T15:22:52.689Z,16.70
2017-12-02T15:23:52.597Z,17.30
2017-12-02T15:25:45.845Z,17.10
2017-12-02T15:26:45.776Z,17.70
2017-12-02T15:28:39.037Z,16.70
2017-12-02T15:29:38.942Z,16.10
2017-12-02T15:31:32.192Z,17.40
2017-12-02T15:32:32.117Z,17.30
2017-12-02T15:34:25.512Z,17.80
2017-12-02T15:35:25.418Z,18.00
2017-12-02T15:37:18.666Z,18.90
2017-12-02T15:38:18.591Z,19.40
2017-12-02T15:40:11.858Z,19.00
2017-12-02T15:41:11.763Z,18.80
2017-12-02T15:43:05.029Z,17.60
2017-12-02T15:44:04.937Z,18.50
2017-12-02T15:45:58.183Z,19.50
2017-12-02T15:46:58.109Z,21.40
2017-12-02T15:48:51.517Z,19.50
2017-12-02T15:49:51.452Z,18.70
2017-12-02T15:51:44.669Z,23.60
2017-12-02T15:52:44.595Z,20.40
2017-12-02T15:54:37.860Z,23.20
2017-12-02T15:55:37.768Z,22.80
2017-12-02T15:57:31.013Z,23.70
2017-12-02T15:58:30.939Z,23.80
2017-12-02T16:00:24.235Z,25.00
2017-12-02T16:01:24.141Z,24.50
2017-12-02T16:03:17.453Z,25.30
2017-12-02T16:04:17.315Z,25.50
2017-12-02T16:06:10.565Z,24.10
2017-12-02T16:07:10.487Z,24.20
2017-12-02T16:09:03.745Z,24.20
2017-12-02T16:10:03.690Z,24.30
2017-12-02T16:11:56.899Z,22.70
2017-12-02T16:12:56.822Z,23.00
2017-12-02T16:14:50.111Z,22.60
2017-12-02T16:15:50.017Z,22.00
2017-12-02T16:17:43.265Z,22.30
2017-12-02T16:18:43.190Z,23.60
2017-12-02T16:20:36.457Z,24.20
2017-12-02T16:21:36.362Z,24.20
2017-12-02T16:23:29.629Z,23.80
2017-12-02T16:24:29.536Z,24.70
2017-12-02T16:26:22.786Z,26.40
2017-12-02T16:27:22.711Z,26.20
2017-12-02T16:29:15.971Z,24.90
2017-12-02T16:30:15.873Z,24.50
2017-12-02T16:32:09.125Z,27.00
2017-12-02T16:33:09.050Z,26.90
2017-12-02T16:35:02.315Z,27.90
2017-12-02T16:36:02.223Z,28.40
2017-12-02T16:37:55.477Z,28.00
2017-12-02T16:38:55.397Z,28.20
2017-12-02T16:40:48.661Z,28.00
2017-12-02T16:41:48.570Z,28.00
2017-12-02T16:43:41.835Z,29.00
2017-12-02T16:44:41.734Z,28.20
2017-12-02T16:46:34.991Z,29.30
2017-12-02T16:47:34.915Z,27.10
2017-12-02T16:49:28.171Z,27.40
2017-12-02T16:50:28.081Z,28.00
2017-12-02T16:52:21.349Z,23.90
2017-12-02T16:53:21.253Z,23.30
2017-12-02T16:55:14.520Z,25.70
2017-12-02T16:56:14.425Z,25.90
2017-12-02T16:58:07.686Z,26.90
2017-12-02T16:59:07.600Z,27.40
2017-12-02T17:01:00.870Z,26.30
2017-12-02T17:02:00.771Z,27.80
2017-12-02T17:03:54.036Z,26.90
2017-12-02T17:04:53.943Z,24.90
2017-12-02T17:06:47.200Z,24.90
2017-12-02T17:07:47.127Z,25.30
2017-12-02T17:09:40.394Z,25.60
2017-12-02T17:10:40.301Z,25.40
2017-12-02T17:12:33.549Z,28.20
2017-12-02T17:13:33.475Z,29.20
2017-12-02T17:15:26.739Z,27.60
2017-12-02T17:16:26.647Z,26.80
2017-12-02T17:18:19.899Z,26.70
2017-12-02T17:19:19.822Z,25.20
2017-12-02T17:21:13.091Z,27.30
2017-12-02T17:22:12.997Z,27.50
2017-12-02T17:24:06.269Z,28.00
2017-12-02T17:25:06.169Z,28.20
2017-12-02T17:26:59.416Z,27.50
2017-12-02T17:27:59.349Z,27.30
2017-12-02T17:29:52.603Z,29.00
2017-12-02T17:30:52.512Z,30.00
2017-12-02T17:32:45.760Z,29.10
2017-12-02T17:33:45.687Z,27.00
2017-12-02T17:35:38.951Z,27.10
2017-12-02T17:36:38.856Z,28.50
2017-12-02T17:38:32.103Z,27.60
2017-12-02T17:39:32.031Z,27.60
2017-12-02T17:41:25.297Z,25.20
2017-12-02T17:42:25.203Z,23.10
2017-12-02T17:44:18.470Z,26.60
2017-12-02T17:45:18.376Z,24.70
2017-12-02T17:47:11.626Z,25.30
2017-12-02T17:48:11.551Z,25.10
2017-12-02T17:50:04.816Z,22.50
2017-12-02T17:51:04.725Z,22.50
2017-12-02T17:52:57.982Z,21.80
2017-12-02T17:53:57.906Z,22.10
2017-12-02T17:55:51.171Z,24.40
2017-12-02T17:56:51.081Z,23.40
2017-12-02T17:58:44.371Z,23.20
2017-12-02T17:59:44.300Z,24.10
2017-12-02T18:01:37.563Z,22.10
2017-12-02T18:02:37.476Z,21.70
2017-12-02T18:04:30.735Z,21.30
2017-12-02T18:05:30.644Z,20.60
2017-12-02T18:07:23.889Z,22.60
2017-12-02T18:08:23.820Z,21.20
2017-12-02T18:10:17.085Z,21.90
2017-12-02T18:11:16.990Z,22.40
2017-12-02T18:13:10.238Z,20.80
2017-12-02T18:14:10.163Z,22.10
2017-12-02T18:16:03.434Z,22.80
2017-12-02T18:17:03.341Z,23.20
2017-12-02T18:18:56.587Z,21.80
2017-12-02T18:19:56.514Z,22.60
2017-12-02T18:21:49.785Z,23.00
2017-12-02T18:22:49.687Z,23.30
2017-12-02T18:24:42.964Z,23.80
2017-12-02T18:25:42.862Z,23.60
2017-12-02T18:27:36.111Z,22.30
2017-12-02T18:28:36.035Z,22.90
2017-12-02T18:30:29.301Z,24.40
2017-12-02T18:31:29.209Z,23.40
2017-12-02T18:33:22.458Z,22.30
2017-12-02T18:34:22.381Z,23.70